Time;durP1;ratioP1;P1;durP2;ratioP2;P2;SDS_P1;SDS_P2;PMS_P1;PMS_P2;Temp;Humidity;BMP_temperature;BMP_pressure;BME280_temperature;BME280_humidity;BME280_pressure;Samples;Min_cycle;Max_cycle;Signal;HPM_P1;HPM_P2
2023/03/28 00:00:44;;;;;;;3.00;2.08;;;;;;;8.87;57.88;97928.06;6110326;23;20017;-94
2023/03/28 00:03:13;;;;;;;3.03;2.20;;;;;;;8.96;57.59;97960.38;6112072;23;20013;-92
2023/03/28 00:05:41;;;;;;;2.95;2.15;;;;;;;8.85;58.32;97969.69;6112132;23;20100;-93
2023/03/28 00:08:06;;;;;;;3.28;2.30;;;;;;;8.81;58.61;97955.28;6134837;23;20052;-93
2023/03/28 00:10:33;;;;;;;4.18;2.58;;;;;;;8.85;58.83;97964.34;6112450;23;20457;-94
2023/03/28 00:12:59;;;;;;;5.63;2.20;;;;;;;8.81;59.12;97982.91;6160774;23;20084;-94
2023/03/28 00:15:25;;;;;;;2.55;2.10;;;;;;;8.60;58.14;97960.94;6112531;23;20429;-93
2023/03/28 00:17:53;;;;;;;3.30;2.10;;;;;;;8.61;58.41;97984.00;6134456;23;20083;-93
2023/03/28 00:20:19;;;;;;;2.30;1.67;;;;;;;8.47;58.42;97978.53;6113139;23;20409;-93
2023/03/28 00:22:45;;;;;;;2.33;1.50;;;;;;;8.38;57.06;97982.91;6137512;23;20011;-93
2023/03/28 00:25:12;;;;;;;2.03;1.38;;;;;;;8.24;56.33;97982.84;6138987;23;20405;-94
2023/03/28 00:27:39;;;;;;;1.55;1.10;;;;;;;8.10;56.67;97987.31;6113391;23;20039;-92
2023/03/28 00:30:08;;;;;;;1.50;1.00;;;;;;;8.07;56.77;97987.84;6159749;23;20029;-93
2023/03/28 00:32:35;;;;;;;1.70;1.15;;;;;;;7.92;57.12;97980.00;6136773;23;20002;-93
2023/03/28 00:35:00;;;;;;;1.27;0.90;;;;;;;7.95;56.38;97977.56;6137992;23;19992;-93
2023/03/28 00:37:26;;;;;;;1.10;0.90;;;;;;;7.88;56.35;97993.97;6113342;23;20009;-93
2023/03/28 00:39:52;;;;;;;1.73;1.02;;;;;;;7.87;56.92;97984.34;6111092;23;20012;-93
2023/03/28 00:42:22;;;;;;;1.67;1.30;;;;;;;7.77;57.74;97984.44;6111219;23;20012;-92
2023/03/28 00:44:48;;;;;;;2.03;1.35;;;;;;;7.71;57.52;97996.28;6137029;23;20033;-93
2023/03/28 00:47:32;;;;;;;1.25;1.00;;;;;;;7.66;57.42;97999.03;6161681;23;20001;-93
2023/03/28 00:50:07;;;;;;;1.10;0.85;;;;;;;7.63;57.32;97984.31;6160833;23;20001;-93
2023/03/28 00:52:45;;;;;;;1.40;1.00;;;;;;;7.44;58.38;97994.94;6089697;23;20005;-93
2023/03/28 00:55:18;;;;;;;1.48;1.10;;;;;;;7.54;58.53;98012.81;6112957;23;20001;-93
2023/03/28 00:57:44;;;;;;;1.52;1.05;;;;;;;7.52;58.14;98009.59;6136249;23;20005;-93
2023/03/28 01:00:11;;;;;;;1.90;1.00;;;;;;;7.51;57.86;98007.19;6087713;23;20036;-94
2023/03/28 01:02:40;;;;;;;1.00;0.80;;;;;;;7.53;57.44;98026.47;6113427;23;20005;-93
2023/03/28 01:05:07;;;;;;;2.25;1.30;;;;;;;7.43;58.63;98006.75;6135167;23;20001;-93
2023/03/28 01:07:35;;;;;;;1.50;1.00;;;;;;;7.43;57.72;98016.66;6137187;23;20005;-93
2023/03/28 01:10:04;;;;;;;1.08;0.80;;;;;;;7.32;58.16;98037.34;6112950;23;20018;-93
2023/03/28 01:12:31;;;;;;;1.67;0.98;;;;;;;7.35;58.45;98041.38;6160719;23;20007;-93
2023/03/28 01:14:59;;;;;;;1.08;0.80;;;;;;;7.39;58.11;98058.47;6113266;23;20013;-92
2023/03/28 01:17:26;;;;;;;1.13;0.80;;;;;;;7.25;58.52;98052.94;6113052;23;20025;-93
2023/03/28 01:20:16;;;;;;;0.90;0.77;;;;;;;7.28;58.26;98058.53;6138246;23;20001;-92
2023/03/28 01:23:02;;;;;;;1.45;1.00;;;;;;;7.17;59.40;98064.25;6162761;23;20009;-93
2023/03/28 01:25:46;;;;;;;1.15;0.80;;;;;;;7.12;58.14;98064.25;6161678;23;20010;-93
2023/03/28 01:28:49;;;;;;;1.27;0.80;;;;;;;7.16;57.74;98078.69;6161611;23;20091;-93
2023/03/28 01:31:33;;;;;;;;;;;;;;;7.07;57.47;98089.97;6161042;23;20076;-93
2023/03/28 01:34:23;;;;;;;0.60;0.60;;;;;;;6.81;57.56;98085.88;6160488;23;20324;-93
2023/03/28 01:37:06;;;;;;;1.10;0.75;;;;;;;6.80;57.93;98095.75;6159891;23;20001;-94
2023/03/28 01:40:05;;;;;;;0.60;0.57;;;;;;;6.90;57.08;98092.22;6089112;23;20008;-93
2023/03/28 01:42:39;;;;;;;0.68;0.68;;;;;;;6.89;57.26;98096.00;6161009;23;20063;-94
2023/03/28 01:45:10;;;;;;;1.08;0.80;;;;;;;6.76;55.82;98093.91;6158578;23;19998;-93
2023/03/28 01:47:40;;;;;;;1.17;0.70;;;;;;;6.52;54.92;98093.75;6136362;23;20001;-93
2023/03/28 01:50:20;;;;;;;0.60;0.60;;;;;;;6.58;56.26;98104.16;6088398;23;20014;-92
2023/03/28 01:52:54;;;;;;;1.58;0.60;;;;;;;6.53;55.42;98122.88;6136677;23;20033;-94
2023/03/28 01:55:22;;;;;;;0.95;0.50;;;;;;;6.53;54.92;98136.25;6161857;23;20001;-93
2023/03/28 01:57:48;;;;;;;1.08;0.80;;;;;;;6.51;54.69;98132.25;6162169;23;20001;-93
2023/03/28 02:00:20;;;;;;;0.40;0.40;;;;;;;6.50;55.51;98119.97;6161564;23;20008;-93
2023/03/28 02:03:01;;;;;;;;;;;;;;;6.47;56.54;98124.78;6162584;23;20050;-92
2023/03/28 02:05:27;;;;;;;0.40;0.40;;;;;;;6.46;55.26;98122.38;6137842;23;20240;-93
2023/03/28 02:07:53;;;;;;;0.50;0.50;;;;;;;6.43;55.10;98126.41;6136846;23;20084;-93
2023/03/28 02:10:24;;;;;;;0.60;0.60;;;;;;;6.48;54.66;98134.41;6134692;23;20017;-93
2023/03/28 02:13:22;;;;;;;0.50;0.50;;;;;;;6.50;55.03;98141.34;6136550;23;20405;-93
2023/03/28 02:15:51;;;;;;;0.77;0.60;;;;;;;6.51;54.70;98140.28;6105241;23;19994;-93
2023/03/28 02:18:22;;;;;;;0.45;0.45;;;;;;;6.53;54.59;98133.56;6104786;23;20005;-93
2023/03/28 02:20:52;;;;;;;0.80;0.60;;;;;;;6.49;53.61;98140.53;6081604;23;20433;-93
2023/03/28 02:23:21;;;;;;;1.48;0.70;;;;;;;6.40;55.45;98148.31;6104628;23;20010;-93
2023/03/28 02:25:48;;;;;;;1.00;0.65;;;;;;;6.37;54.53;98164.91;6107214;23;20002;-93
2023/03/28 02:28:13;;;;;;;3.22;0.63;;;;;;;6.23;54.87;98158.53;6082006;23;20094;-93
2023/03/28 02:30:39;;;;;;;0.70;0.60;;;;;;;6.27;53.94;98164.94;6082862;23;20001;-92
2023/03/28 02:33:09;;;;;;;0.82;0.70;;;;;;;6.20;55.60;98162.50;6105070;23;20013;-92
2023/03/28 02:35:50;;;;;;;0.70;0.60;;;;;;;6.21;54.41;98169.47;6106445;23;20036;-93
2023/03/28 02:38:43;;;;;;;0.70;0.60;;;;;;;6.21;53.92;98168.69;6104664;23;20006;-92
2023/03/28 02:41:51;;;;;;;0.93;0.80;;;;;;;6.27;53.78;98180.97;6080294;23;20404;-92
2023/03/28 02:44:33;;;;;;;0.63;0.63;;;;;;;6.33;53.86;98177.22;6128522;23;20065;-92
2023/03/28 02:47:37;;;;;;;;;;;;;;;6.30;53.17;98179.63;6111183;23;20020;-92
2023/03/28 02:50:28;;;;;;;0.50;0.50;;;;;;;6.25;53.23;98186.56;6100991;23;19949;-91
2023/03/28 02:52:59;;;;;;;0.40;0.40;;;;;;;6.32;52.19;98188.97;6100734;23;20033;-91
2023/03/28 02:55:56;;;;;;;0.50;0.50;;;;;;;6.31;53.08;98210.63;6125991;23;20006;-93
2023/03/28 02:58:48;;;;;;;1.45;0.80;;;;;;;6.22;52.58;98202.34;6135432;23;20463;-92
2023/03/28 03:01:13;;;;;;;0.60;0.60;;;;;;;6.07;52.90;98184.44;6136588;23;20033;-92
2023/03/28 03:03:42;;;;;;;1.23;0.60;;;;;;;6.04;54.07;98201.81;6112837;23;20024;-93
2023/03/28 03:06:09;;;;;;;0.50;0.43;;;;;;;6.03;52.28;98196.75;6136564;23;19997;-94
2023/03/28 03:08:34;;;;;;;0.80;0.52;;;;;;;6.09;53.78;98221.59;6112091;23;20055;-93
2023/03/28 03:11:00;;;;;;;1.08;0.80;;;;;;;6.02;52.97;98217.31;6114133;23;20025;-94
2023/03/28 03:13:26;;;;;;;1.00;0.80;;;;;;;6.05;52.56;98232.81;6115230;23;20080;-94
2023/03/28 03:15:53;;;;;;;3.45;1.02;;;;;;;6.02;53.21;98222.66;6115550;23;20006;-93
2023/03/28 03:18:20;;;;;;;1.90;0.95;;;;;;;6.19;52.21;98251.00;6138166;23;20005;-94
2023/03/28 03:20:46;;;;;;;1.15;0.85;;;;;;;6.14;52.42;98234.94;6112743;23;20091;-92
2023/03/28 03:23:13;;;;;;;1.02;0.85;;;;;;;6.17;51.90;98237.09;6114303;23;20001;-94
2023/03/28 03:25:41;;;;;;;2.25;1.20;;;;;;;6.19;51.81;98259.81;6116054;23;20002;-94
2023/03/28 03:28:09;;;;;;;1.38;0.93;;;;;;;6.05;52.02;98243.50;6138447;23;20009;-93
2023/03/28 03:30:36;;;;;;;1.83;1.00;;;;;;;6.00;51.68;98237.38;6138309;23;20049;-92
2023/03/28 03:33:01;;;;;;;5.43;1.00;;;;;;;5.93;52.64;98250.94;6137394;23;20001;-93
2023/03/28 03:35:33;;;;;;;2.40;1.00;;;;;;;5.92;52.55;98264.59;6114531;23;20013;-93
2023/03/28 03:38:00;;;;;;;2.38;1.30;;;;;;;6.00;53.77;98272.91;6115223;23;19992;-95
2023/03/28 03:40:27;;;;;;;2.22;1.38;;;;;;;5.97;52.80;98260.06;6119043;23;20065;-94
2023/03/28 03:42:53;;;;;;;1.88;1.20;;;;;;;5.77;53.16;98265.34;6117038;23;20002;-96
2023/03/28 03:45:21;;;;;;;1.15;0.90;;;;;;;5.86;52.05;98261.09;6115481;23;19998;-95
2023/03/28 03:47:46;;;;;;;2.63;1.90;;;;;;;5.92;53.84;98269.94;6138157;23;20001;-95
2023/03/28 03:50:12;;;;;;;1.73;1.20;;;;;;;6.06;52.66;98287.88;6115128;23;20013;-95
2023/03/28 03:52:38;;;;;;;2.97;1.13;;;;;;;5.88;51.77;98270.44;6140400;23;20006;-93
2023/03/28 03:55:05;;;;;;;1.70;1.00;;;;;;;6.04;51.77;98287.34;6138597;23;20072;-93
2023/03/28 03:57:32;;;;;;;1.77;1.10;;;;;;;5.95;52.55;98285.44;6110043;23;20009;-94
2023/03/28 04:03:20;;;;;;;1.80;0.90;;;;;;;6.15;52.05;98290.03;6160960;23;20412;-93
2023/03/28 04:05:45;;;;;;;4.05;1.20;;;;;;;6.02;51.61;98291.34;6111376;23;19997;-93
2023/03/28 04:08:11;;;;;;;2.55;1.65;;;;;;;6.06;50.58;98295.88;6109582;23;20008;-94
2023/03/28 04:10:43;;;;;;;3.65;1.50;;;;;;;6.02;51.54;98308.19;6111454;23;20013;-92
2023/03/28 04:13:08;;;;;;;2.13;1.60;;;;;;;5.88;51.14;98291.00;6115847;23;20005;-94
2023/03/28 04:15:34;;;;;;;2.00;1.40;;;;;;;6.02;51.37;98305.50;6089038;23;20013;-95
2023/03/28 04:18:00;;;;;;;1.83;1.40;;;;;;;6.00;51.75;98306.84;6136874;23;20008;-92
2023/03/28 04:20:30;;;;;;;3.00;1.05;;;;;;;5.81;51.46;98307.31;6112066;23;20002;-93
2023/03/28 04:22:57;;;;;;;1.30;1.20;;;;;;;5.92;51.90;98307.31;6113841;23;20099;-93
2023/03/28 04:25:23;;;;;;;2.38;1.42;;;;;;;5.93;51.54;98323.06;6138114;23;20002;-95
2023/03/28 04:27:53;;;;;;;4.72;1.13;;;;;;;5.82;51.52;98314.22;6135810;23;20041;-94
2023/03/28 04:30:23;;;;;;;1.77;1.30;;;;;;;5.87;50.54;98318.78;6137069;23;20012;-93
2023/03/28 04:32:53;;;;;;;1.67;1.17;;;;;;;5.75;50.61;98321.72;6110447;23;20072;-86
2023/03/28 04:35:19;;;;;;;2.28;1.50;;;;;;;5.70;51.55;98321.69;6131927;23;20013;-82
2023/03/28 04:37:46;;;;;;;1.60;1.40;;;;;;;5.94;51.28;98340.72;6132691;23;20009;-86
2023/03/28 04:40:14;;;;;;;2.03;1.42;;;;;;;5.85;50.82;98320.91;6108105;23;20001;-85
2023/03/28 04:42:41;;;;;;;2.97;1.45;;;;;;;5.78;50.70;98323.84;6108990;23;20401;-86
2023/03/28 04:45:07;;;;;;;2.00;1.42;;;;;;;5.76;51.00;98349.22;6133275;23;20021;-89
2023/03/28 04:47:41;;;;;;;3.80;1.60;;;;;;;5.77;51.92;98340.94;6109831;23;20081;-93
2023/03/28 04:50:07;;;;;;;3.00;2.03;;;;;;;5.65;51.89;98340.38;6111339;23;20029;-88
2023/03/28 04:52:34;;;;;;;1.77;1.30;;;;;;;5.82;51.32;98340.94;6108895;23;20002;-89
2023/03/28 04:55:09;;;;;;;1.17;1.00;;;;;;;5.60;51.30;98346.50;6108671;23;20009;-88
2023/03/28 04:57:37;;;;;;;1.40;1.23;;;;;;;5.65;50.20;98375.09;6112470;23;19998;-89
2023/03/28 05:00:09;;;;;;;1.65;1.27;;;;;;;5.65;50.66;98356.38;6112308;23;20442;-88
2023/03/28 05:02:34;;;;;;;1.95;1.45;;;;;;;5.61;50.13;98371.31;6086983;23;20016;-88
2023/03/28 05:05:00;;;;;;;1.95;1.60;;;;;;;5.36;51.19;98372.00;6108828;23;20379;-87
2023/03/28 05:07:26;;;;;;;1.42;1.27;;;;;;;5.58;50.58;98374.50;6133781;23;20001;-92
2023/03/28 05:09:51;;;;;;;3.30;1.25;;;;;;;5.61;50.06;98396.16;6107613;23;20025;-92
2023/03/28 05:12:17;;;;;;;1.92;1.38;;;;;;;5.49;50.99;98390.22;6111511;23;20006;-89
2023/03/28 05:14:50;;;;;;;2.47;1.40;;;;;;;5.41;51.98;98372.81;6079836;23;20002;-89
2023/03/28 05:17:16;;;;;;;4.70;1.60;;;;;;;5.52;50.49;98384.38;6130328;23;20006;-88
2023/03/28 05:19:44;;;;;;;2.85;1.50;;;;;;;5.53;51.68;98369.16;6105785;23;20002;-92
2023/03/28 05:22:13;;;;;;;2.25;1.50;;;;;;;5.36;51.07;98367.47;6131581;23;20010;-91
2023/03/28 05:24:44;;;;;;;1.95;1.40;;;;;;;5.58;51.79;98393.19;6102580;23;20002;-93
2023/03/28 05:27:16;;;;;;;5.97;1.90;;;;;;;5.49;50.27;98352.84;6038805;23;20051;-92
2023/03/28 05:30:00;;;;;;;2.10;1.27;;;;;;;5.42;49.79;98358.44;6075441;23;20235;-93
2023/03/28 05:32:37;;;;;;;2.30;1.48;;;;;;;5.53;49.80;98374.50;6026785;23;20029;-93
2023/03/28 05:35:07;;;;;;;2.60;1.77;;;;;;;5.60;50.12;98391.06;6051900;23;20014;-93
2023/03/28 05:37:33;;;;;;;3.70;1.92;;;;;;;5.58;50.50;98398.53;6025553;23;20007;-92
2023/03/28 05:40:00;;;;;;;2.33;1.30;;;;;;;5.81;49.98;98402.63;6048903;23;20014;-93
2023/03/28 05:42:34;;;;;;;2.10;1.23;;;;;;;5.94;49.24;98398.69;6055520;23;20011;-91
2023/03/28 05:45:01;;;;;;;3.25;1.30;;;;;;;5.89;49.52;98375.41;6027158;23;20007;-93
2023/03/28 05:47:27;;;;;;;1.38;1.10;;;;;;;5.97;48.35;98376.81;6023314;23;20363;-91
2023/03/28 05:49:59;;;;;;;1.92;1.48;;;;;;;5.96;48.65;98389.38;6026981;23;20013;-93
2023/03/28 05:52:25;;;;;;;2.95;1.13;;;;;;;6.10;48.39;98423.63;6029561;23;20007;-92
2023/03/28 05:54:55;;;;;;;2.30;1.50;;;;;;;6.04;48.41;98415.59;6037076;23;20006;-90
2023/03/28 05:57:20;;;;;;;2.47;1.10;;;;;;;5.79;48.40;98405.59;6130520;23;20009;-91
2023/03/28 05:59:47;;;;;;;2.03;1.35;;;;;;;5.91;48.40;98396.53;6081267;23;20006;-91
2023/03/28 06:02:16;;;;;;;2.10;1.38;;;;;;;5.88;48.90;98408.56;6081661;23;20014;-90
2023/03/28 06:04:47;;;;;;;1.65;1.20;;;;;;;6.14;48.62;98419.34;6104347;23;20002;-87
2023/03/28 06:07:16;;;;;;;3.25;1.75;;;;;;;5.95;48.42;98406.47;6101444;23;20001;-88
2023/03/28 06:09:42;;;;;;;3.03;1.80;;;;;;;6.03;48.96;98422.00;6073427;23;20029;-87
2023/03/28 06:12:15;;;;;;;5.38;1.80;;;;;;;5.90;48.73;98430.47;6100937;23;20001;-87
2023/03/28 06:14:41;;;;;;;2.72;1.88;;;;;;;5.74;49.02;98416.25;6105055;23;20010;-86
2023/03/28 06:17:07;;;;;;;3.25;1.52;;;;;;;5.98;48.69;98447.91;6078647;23;20040;-88
2023/03/28 06:19:39;;;;;;;3.08;1.63;;;;;;;5.77;49.02;98420.25;6080797;23;20010;-89
2023/03/28 06:22:06;;;;;;;2.20;1.58;;;;;;;5.94;48.20;98444.91;6127594;23;20010;-89
2023/03/28 06:24:31;;;;;;;5.40;1.75;;;;;;;6.02;47.87;98449.78;6103087;23;20409;-89
2023/03/28 06:26:58;;;;;;;2.50;1.60;;;;;;;6.19;48.01;98468.28;6103589;23;20032;-88
2023/03/28 06:29:24;;;;;;;3.30;1.60;;;;;;;6.13;47.23;98476.56;6131320;23;20037;-87
2023/03/28 06:31:50;;;;;;;5.57;2.30;;;;;;;6.07;47.41;98476.53;6135438;23;20020;-87
2023/03/28 06:34:18;;;;;;;4.07;2.22;;;;;;;5.91;47.68;98463.34;6128572;23;20033;-86
2023/03/28 06:36:44;;;;;;;2.58;1.42;;;;;;;5.96;48.56;98458.06;6103802;23;20345;-86
2023/03/28 06:39:10;;;;;;;1.92;1.38;;;;;;;6.09;47.81;98470.94;6106024;23;20021;-88
2023/03/28 06:41:37;;;;;;;2.60;1.40;;;;;;;6.26;47.52;98476.84;6106226;23;20077;-88
2023/03/28 06:44:11;;;;;;;2.00;1.38;;;;;;;6.23;47.55;98490.75;6108354;23;20016;-89
2023/03/28 06:46:38;;;;;;;2.85;1.80;;;;;;;6.32;47.42;98477.69;6114233;23;20390;-88
2023/03/28 06:49:03;;;;;;;6.18;2.58;;;;;;;6.16;47.54;98436.72;6133405;23;20464;-87
2023/03/28 06:51:42;;;;;;;4.90;1.92;;;;;;;6.51;47.50;98493.25;6133571;23;20021;-90
2023/03/28 06:54:08;;;;;;;2.55;1.88;;;;;;;6.32;47.43;98458.19;6108996;23;20006;-87
2023/03/28 06:56:41;;;;;;;2.10;1.50;;;;;;;6.58;46.59;98509.84;6106377;23;20028;-86
2023/03/28 06:59:07;;;;;;;3.22;1.73;;;;;;;6.41;46.71;98523.44;6081538;23;20001;-88
2023/03/28 07:01:33;;;;;;;1.92;1.70;;;;;;;6.22;46.37;98491.81;6108991;23;20006;-87
2023/03/28 07:03:58;;;;;;;1.80;1.30;;;;;;;6.31;47.68;98485.97;6105383;23;20369;-90
2023/03/28 07:06:26;;;;;;;4.38;1.65;;;;;;;6.61;46.72;98515.47;6083759;23;20092;-90
2023/03/28 07:08:52;;;;;;;2.17;1.75;;;;;;;6.62;47.68;98525.13;6103740;23;20029;-87
2023/03/28 07:11:18;;;;;;;2.25;1.48;;;;;;;6.66;45.90;98541.44;6132036;23;20006;-87
2023/03/28 07:13:45;;;;;;;2.38;1.75;;;;;;;6.46;46.19;98502.88;6104839;23;20040;-89
2023/03/28 07:16:21;;;;;;;4.63;1.70;;;;;;;6.44;46.73;98522.91;6132641;23;20013;-87
2023/03/28 07:18:47;;;;;;;2.20;1.42;;;;;;;6.31;46.36;98529.56;6110001;23;20076;-86
2023/03/28 07:21:14;;;;;;;2.30;1.70;;;;;;;6.33;47.02;98545.31;6110292;23;20422;-87
2023/03/28 07:23:40;;;;;;;2.60;1.67;;;;;;;6.13;46.93;98546.03;6085370;23;20025;-87
2023/03/28 07:26:07;;;;;;;2.65;2.03;;;;;;;6.19;47.64;98563.72;6108998;23;20001;-86
2023/03/28 07:28:33;;;;;;;2.10;1.55;;;;;;;6.19;47.38;98574.41;6109806;23;20076;-86
2023/03/28 07:31:00;;;;;;;2.50;1.83;;;;;;;6.09;47.08;98558.31;6107472;23;20001;-84
2023/03/28 07:33:28;;;;;;;5.65;2.58;;;;;;;6.02;48.01;98558.56;6162255;23;19998;-90
2023/03/28 07:35:53;;;;;;;2.70;2.08;;;;;;;6.21;46.96;98557.03;6110843;23;20420;-88
2023/03/28 07:38:20;;;;;;;8.10;2.15;;;;;;;6.30;47.04;98553.88;6112449;23;20005;-87
2023/03/28 07:40:46;;;;;;;4.78;1.90;;;;;;;6.45;46.77;98535.22;6115949;23;20005;-87
2023/03/28 07:43:18;;;;;;;4.13;2.20;;;;;;;6.52;46.39;98532.31;6112460;23;20045;-86
2023/03/28 07:45:46;;;;;;;3.10;2.08;;;;;;;6.60;46.26;98550.50;6116842;23;20001;-87
2023/03/28 07:48:12;;;;;;;5.28;2.15;;;;;;;6.74;45.68;98569.53;6111192;23;20056;-86
2023/03/28 07:50:38;;;;;;;3.28;2.03;;;;;;;6.51;45.53;98538.72;6115126;23;20115;-89
2023/03/28 07:53:03;;;;;;;2.85;2.08;;;;;;;6.60;45.90;98566.53;6138923;23;20029;-87
2023/03/28 07:55:32;;;;;;;3.45;2.65;;;;;;;6.67;46.11;98577.81;6116387;23;20071;-88
2023/03/28 07:57:58;;;;;;;8.35;3.00;;;;;;;6.62;45.33;98561.75;6139480;23;20001;-88
2023/03/28 08:00:25;;;;;;;3.20;2.40;;;;;;;6.41;46.48;98551.00;6143588;23;19997;-88
2023/03/28 08:02:51;;;;;;;11.52;2.55;;;;;;;6.74;46.50;98578.38;6112563;23;20001;-88
2023/03/28 08:05:17;;;;;;;4.28;2.35;;;;;;;6.74;45.32;98580.25;6138374;23;20012;-87
2023/03/28 08:07:46;;;;;;;3.42;2.63;;;;;;;6.61;45.94;98563.63;6113440;23;20002;-88
2023/03/28 08:10:13;;;;;;;6.28;3.85;;;;;;;6.63;45.28;98568.72;6137137;23;20082;-88
2023/03/28 08:12:38;;;;;;;3.03;2.47;;;;;;;6.42;45.51;98557.13;6139918;23;19994;-89
2023/03/28 08:15:11;;;;;;;4.07;2.83;;;;;;;6.32;46.31;98552.53;6117398;23;20088;-87
2023/03/28 08:17:36;;;;;;;7.72;3.17;;;;;;;6.53;45.66;98558.78;6111259;23;20005;-87
2023/03/28 08:20:08;;;;;;;12.18;9.85;;;;;;;6.80;45.53;98571.97;6112762;23;20002;-84
2023/03/28 08:26:08;;;;;;;4.57;2.23;;;;;;;6.83;44.93;98595.53;6160419;23;20057;-89
2023/03/28 08:28:38;;;;;;;4.00;2.83;;;;;;;6.84;45.54;98580.28;6136175;23;20079;-87
2023/03/28 08:31:22;;;;;;;3.92;2.17;;;;;;;7.16;46.33;98560.53;6133963;23;20005;-91
2023/03/28 08:33:51;;;;;;;3.03;2.08;;;;;;;7.43;45.12;98579.84;6115015;23;20077;-89
2023/03/28 08:36:20;;;;;;;3.92;2.03;;;;;;;7.58;43.23;98599.69;6116956;23;20016;-88
2023/03/28 08:38:48;;;;;;;5.18;2.40;;;;;;;7.19;43.71;98573.41;6112543;23;20025;-92
2023/03/28 08:42:09;;;;;;;2.70;2.03;;;;;;;7.19;45.15;98586.78;6165359;23;20056;-92
2023/03/28 08:45:15;;;;;;;4.63;2.45;;;;;;;7.57;43.67;98573.94;6113658;23;20001;-92
2023/03/28 08:48:02;;;;;;;6.93;2.63;;;;;;;7.76;43.41;98595.63;6136837;23;20012;-94
2023/03/28 08:50:59;;;;;;;10.00;3.35;;;;;;;7.42;41.51;98572.06;6160154;23;20001;-91
2023/03/28 08:54:13;;;;;;;;;;;;;;;;;;;;;
2023/03/28 08:57:21;;;;;;;;;;;;;;;;;;;;;
2023/03/28 08:59:52;;;;;;;3.75;2.25;;;;;;;7.11;43.84;98611.41;6105392;23;19936;-92
2023/03/28 09:02:23;;;;;;;4.07;2.25;;;;;;;7.11;44.90;98616.75;6103489;23;20090;-90
2023/03/28 09:06:06;;;;;;;;;;;;;;;;;;;;;
2023/03/28 09:09:22;;;;;;;8.30;2.40;;;;;;;7.33;43.60;98637.97;6024763;23;20034;-91
2023/03/28 09:12:09;;;;;;;3.40;2.10;;;;;;;7.51;43.61;98613.31;6082012;23;20462;-89
2023/03/28 09:14:56;;;;;;;4.18;2.33;;;;;;;7.42;43.52;98612.25;6075306;23;20010;-90
2023/03/28 09:17:52;;;;;;;5.30;2.30;;;;;;;7.52;43.58;98600.75;6073955;23;20006;-87
2023/03/28 09:20:26;;;;;;;5.13;2.50;;;;;;;7.71;43.73;98603.69;6072145;23;20010;-89
2023/03/28 09:23:39;;;;;;;6.65;2.42;;;;;;;7.92;42.98;98637.44;6075852;23;20022;-89
2023/03/28 09:26:43;;;;;;;4.70;2.80;;;;;;;7.82;42.12;98606.09;6075331;23;20074;-87
2023/03/28 09:29:18;;;;;;;2.92;2.10;;;;;;;7.84;41.20;98613.84;6063712;23;20006;-89
2023/03/28 09:31:48;;;;;;;4.80;3.00;;;;;;;7.79;42.19;98613.88;6112045;23;20007;-89
2023/03/28 09:34:26;;;;;;;5.53;2.33;;;;;;;8.04;42.17;98626.44;6111397;23;20005;-89
2023/03/28 09:36:58;;;;;;;4.97;2.33;;;;;;;7.90;41.18;98626.19;6111980;23;20011;-89
2023/03/28 09:39:29;;;;;;;5.68;2.50;;;;;;;7.99;42.24;98654.06;6114415;23;20484;-89
2023/03/28 09:42:02;;;;;;;6.82;2.30;;;;;;;8.16;41.23;98647.63;6164421;23;20009;-91
2023/03/28 09:44:48;;;;;;;4.30;2.33;;;;;;;8.13;41.89;98629.38;6138732;23;20028;-90
2023/03/28 09:47:14;;;;;;;4.38;2.60;;;;;;;8.15;41.68;98613.81;6162397;23;20005;-88
2023/03/28 09:49:41;;;;;;;8.02;2.67;;;;;;;8.43;41.60;98663.44;6136271;23;20025;-89
2023/03/28 09:53:02;;;;;;;9.38;3.53;;;;;;;8.32;41.12;98670.63;6134118;23;20140;-91
2023/03/28 10:02:40;;;;;;;11.88;2.50;;;;;;;8.22;40.66;98652.72;6174929;23;20092;-90
2023/03/28 10:05:35;;;;;;;14.63;2.35;;;;;;;8.45;40.59;98669.34;6088241;23;20025;-90
2023/03/28 10:08:32;;;;;;;12.00;2.90;;;;;;;8.62;40.54;98685.91;6134914;23;20001;-89
2023/03/28 10:11:55;;;;;;;7.07;2.55;;;;;;;8.52;40.41;98693.19;6156141;23;20018;-93
2023/03/28 10:15:16;;;;;;;7.68;1.80;;;;;;;8.97;39.61;98692.25;6115359;23;20048;-95
2023/03/28 10:18:01;;;;;;;;;;;;;;;;;;;;;
2023/03/28 10:20:27;;;;;;;16.45;2.30;;;;;;;8.88;38.75;98709.97;6107889;23;20037;-92
2023/03/28 10:23:11;;;;;;;4.38;2.10;;;;;;;8.61;38.29;98708.47;6110073;23;20378;-93
2023/03/28 10:26:22;;;;;;;8.80;2.30;;;;;;;8.41;38.75;98687.84;6087295;23;20005;-95
2023/03/28 10:29:07;;;;;;;;;;;;;;;;;;;;;
2023/03/28 10:31:33;;;;;;;7.82;2.08;;;;;;;8.52;37.83;98707.41;6123254;23;20025;-94
2023/03/28 10:33:59;;;;;;;5.93;1.90;;;;;;;8.03;38.06;98676.59;6093247;23;20002;-95
2023/03/28 10:36:33;;;;;;;5.35;1.92;;;;;;;8.03;38.23;98698.03;6092933;23;20037;-96
2023/03/28 10:39:24;;;;;;;5.80;2.28;;;;;;;8.48;38.58;98731.28;6119580;23;20013;-96
2023/03/28 10:41:55;;;;;;;7.57;2.00;;;;;;;8.59;37.76;98717.84;6116736;23;20016;-96
2023/03/28 10:44:39;;;;;;;7.60;2.38;;;;;;;8.45;37.66;98688.09;6139844;23;20014;-95
2023/03/28 10:47:14;;;;;;;15.05;3.83;;;;;;;8.48;36.71;98707.13;6120378;23;20029;-94
2023/03/28 10:49:47;;;;;;;10.25;1.80;;;;;;;8.41;36.60;98681.69;6090045;23;19998;-93
2023/03/28 10:52:42;;;;;;;10.23;1.90;;;;;;;8.84;36.88;98725.03;6088761;23;20057;-95
2023/03/28 10:55:26;;;;;;;5.00;2.03;;;;;;;9.12;36.34;98698.63;6116968;23;20006;-93
2023/03/28 10:58:17;;;;;;;9.52;1.83;;;;;;;9.30;35.14;98706.88;6120012;23;20006;-96
2023/03/28 11:01:18;;;;;;;6.88;3.78;;;;;;;9.24;36.49;98717.94;6141084;23;20008;-96
2023/03/28 11:04:17;;;;;;;12.27;3.65;;;;;;;9.24;36.68;98740.22;6131307;23;20021;-96
2023/03/28 11:07:03;;;;;;;8.38;2.38;;;;;;;8.68;36.02;98743.88;6159493;23;19998;-95
2023/03/28 11:09:55;;;;;;;6.35;2.80;;;;;;;8.64;36.26;98750.06;6118281;23;20022;-96
2023/03/28 11:12:39;;;;;;;6.80;1.70;;;;;;;8.81;37.05;98745.19;6162555;23;20006;-94
2023/03/28 11:15:35;;;;;;;9.10;2.40;;;;;;;8.90;36.96;98774.94;6096090;23;20013;-95
2023/03/28 11:18:29;;;;;;;12.65;1.98;;;;;;;8.40;36.29;98744.41;6136316;23;20001;-90
2023/03/28 11:21:20;;;;;;;4.70;1.77;;;;;;;8.37;36.79;98758.38;6136450;23;20026;-94
2023/03/28 11:24:03;;;;;;;5.10;2.28;;;;;;;8.34;37.20;98746.28;6158674;23;20006;-95
2023/03/28 11:27:11;;;;;;;4.03;1.90;;;;;;;8.49;37.12;98775.03;6112195;23;20014;-93
2023/03/28 11:32:40;;;;;;;9.32;2.10;;;;;;;8.12;37.64;98781.44;6067534;23;20051;-95
2023/03/28 11:40:51;;;;;;;8.13;2.20;;;;;;;8.33;37.13;98797.53;6157485;23;20026;-95
2023/03/28 11:43:34;;;;;;;8.95;2.00;;;;;;;8.30;37.61;98751.41;6143881;23;20025;-95
2023/03/28 11:46:15;;;;;;;6.05;2.60;;;;;;;8.63;36.54;98792.19;6122022;23;20471;-95
2023/03/28 11:49:35;;;;;;;14.63;2.97;;;;;;;8.38;36.44;98752.72;6122057;23;20057;-96
2023/03/28 11:52:24;;;;;;;6.20;2.10;;;;;;;8.34;36.56;98766.94;6111708;23;20066;-94
2023/03/28 11:55:29;;;;;;;2.70;1.60;;;;;;;8.41;36.84;98771.00;6083052;23;20038;-93
2023/03/28 11:58:24;;;;;;;17.02;3.95;;;;;;;8.39;36.39;98785.72;6086851;23;20002;-88
2023/03/28 12:01:05;;;;;;;23.33;4.15;;;;;;;8.18;36.91;98776.88;6073131;23;20425;-89
2023/03/28 12:04:19;;;;;;;5.57;2.28;;;;;;;8.36;36.25;98800.47;6049217;23;20021;-88
2023/03/28 12:07:01;;;;;;;5.38;2.28;;;;;;;8.17;35.85;98800.19;6049033;23;20082;-90
2023/03/28 12:09:33;;;;;;;3.88;1.90;;;;;;;8.32;36.25;98806.63;6053584;23;20002;-89
2023/03/28 12:12:40;;;;;;;3.63;1.88;;;;;;;8.27;35.51;98780.63;6072058;23;20046;-91
2023/03/28 12:15:09;;;;;;;10.48;1.77;;;;;;;8.54;34.88;98809.09;6015934;23;20015;-87
2023/03/28 12:17:43;;;;;;;4.18;1.90;;;;;;;8.50;34.93;98812.31;6016300;23;20015;-86
2023/03/28 12:20:59;;;;;;;;;;;;;;;;;;;;;
2023/03/28 12:23:50;;;;;;;8.38;2.00;;;;;;;8.17;35.76;98786.78;6116074;23;20065;-86
2023/03/28 12:26:59;;;;;;;3.67;1.70;;;;;;;8.58;35.36;98810.16;6079984;23;20002;-87
2023/03/28 12:29:27;;;;;;;13.77;1.83;;;;;;;8.53;35.45;98832.44;6126980;23;20084;-89
2023/03/28 12:32:07;;;;;;;2.50;1.65;;;;;;;8.32;34.96;98822.72;6127569;23;20002;-87
2023/03/28 12:35:14;;;;;;;6.28;1.80;;;;;;;8.19;34.96;98813.34;6085309;23;20005;-88
2023/03/28 12:38:04;;;;;;;12.63;2.20;;;;;;;8.23;34.97;98801.81;6077880;23;20425;-90
2023/03/28 12:40:47;;;;;;;12.80;2.03;;;;;;;8.36;35.40;98848.75;6052564;23;20030;-87
2023/03/28 12:43:16;;;;;;;15.00;2.78;;;;;;;8.36;35.28;98847.94;6103999;23;20101;-87
2023/03/28 12:45:53;;;;;;;13.63;2.28;;;;;;;8.35;35.34;98832.94;6083079;23;20094;-88
2023/03/28 12:48:40;;;;;;;11.20;2.28;;;;;;;8.43;35.12;98843.16;6039174;23;20001;-86
2023/03/28 12:51:15;;;;;;;9.68;2.10;;;;;;;8.44;35.85;98826.78;6084524;23;20006;-86